Map

Track Data

SID SEASON NUMBER BASIN SUBBASIN NAME ISO_TIME NATURE LAT LON WMO_WIND WMO_PRES WMO_AGENCY TRACK_TYPE DIST2LAND LANDFALL IFLAG USA_AGENCY USA_ATCF_ID USA_LAT USA_LON USA_RECORD USA_STATUS USA_WIND USA_PRES USA_SSHS USA_R34_NE USA_R34_SE USA_R34_SW USA_R34_NW USA_R50_NE USA_R50_SE USA_R50_SW USA_R50_NW USA_R64_NE USA_R64_SE USA_R64_SW USA_R64_NW USA_POCI USA_ROCI USA_RMW USA_EYE TOKYO_LAT TOKYO_LON TOKYO_GRADE TOKYO_WIND TOKYO_PRES TOKYO_R50_DIR TOKYO_R50_LONG TOKYO_R50_SHORT TOKYO_R30_DIR TOKYO_R30_LONG TOKYO_R30_SHORT TOKYO_LAND CMA_LAT CMA_LON CMA_CAT CMA_WIND CMA_PRES HKO_LAT HKO_LON HKO_CAT HKO_WIND HKO_PRES NEWDELHI_LAT NEWDELHI_LON NEWDELHI_GRADE NEWDELHI_WIND NEWDELHI_PRES NEWDELHI_CI NEWDELHI_DP NEWDELHI_POCI REUNION_LAT REUNION_LON REUNION_TYPE REUNION_WIND REUNION_PRES REUNION_TNUM REUNION_CI REUNION_RMW REUNION_R34_NE REUNION_R34_SE REUNION_R34_SW REUNION_R34_NW REUNION_R50_NE REUNION_R50_SE REUNION_R50_SW REUNION_R50_NW REUNION_R64_NE REUNION_R64_SE REUNION_R64_SW REUNION_R64_NW BOM_LAT BOM_LON BOM_TYPE BOM_WIND BOM_PRES BOM_TNUM BOM_CI BOM_RMW BOM_R34_NE BOM_R34_SE BOM_R34_SW BOM_R34_NW BOM_R50_NE BOM_R50_SE BOM_R50_SW BOM_R50_NW BOM_R64_NE BOM_R64_SE BOM_R64_SW BOM_R64_NW BOM_ROCI BOM_POCI BOM_EYE BOM_POS_METHOD BOM_PRES_METHOD NADI_LAT NADI_LON NADI_CAT NADI_WIND NADI_PRES WELLINGTON_LAT WELLINGTON_LON WELLINGTON_WIND WELLINGTON_PRES DS824_LAT DS824_LON DS824_STAGE DS824_WIND DS824_PRES TD9636_LAT TD9636_LON TD9636_STAGE TD9636_WIND TD9636_PRES TD9635_LAT TD9635_LON TD9635_WIND TD9635_PRES TD9635_ROCI NEUMANN_LAT NEUMANN_LON NEUMANN_CLASS NEUMANN_WIND NEUMANN_PRES MLC_LAT MLC_LON MLC_CLASS MLC_WIND MLC_PRES USA_GUST BOM_GUST BOM_GUST_PER REUNION_GUST REUNION_GUST_PER USA_SEAHGT USA_SEARAD_NE USA_SEARAD_SE USA_SEARAD_SW USA_SEARAD_NW STORM_SPEED STORM_DIR
1969226N18280 1969 56 NA CS CAMILLE 1969-08-14 00:00:00 TS 18.3000 -79.7000 30 hurdat_atl main 137 137 O_____________ hurdat_atl AL091969 18.3000 -79.7000 TD 30 -1 8 283
1969226N18280 1969 56 NA CS CAMILLE 1969-08-14 03:00:00 TS 18.3901 -80.0975 main 180 180 P_____________ AL091969 18.3901 -80.0975 TD 32 -1 8 285
1969226N18280 1969 56 NA CS CAMILLE 1969-08-14 06:00:00 TS 18.5000 -80.5000 35 hurdat_atl main 224 224 O_____________ hurdat_atl AL091969 18.5000 -80.5000 TS 35 0 8 288
1969226N18280 1969 56 NA CS CAMILLE 1969-08-14 09:00:00 TS 18.6425 -80.9075 main 267 267 P_____________ AL091969 18.6425 -80.9075 TS 40 0 8 292
1969226N18280 1969 56 NA CS CAMILLE 1969-08-14 12:00:00 TS 18.8000 -81.3000 45 hurdat_atl main 313 306 O_____________ hurdat_atl AL091969 18.8000 -81.3000 TS 45 0 8 293
1969226N18280 1969 56 NA CS CAMILLE 1969-08-14 15:00:00 TS 18.9424 -81.6576 main 302 270 P_____________ AL091969 18.9424 -81.6576 TS 47 0 7 294
1969226N18280 1969 56 NA CS CAMILLE 1969-08-14 18:00:00 TS 19.1000 -82.0000 50 hurdat_atl main 270 240 O_____________ hurdat_atl AL091969 19.1000 -82.0000 TS 50 0 7 297
1969226N18280 1969 56 NA CS CAMILLE 1969-08-14 21:00:00 TS 19.2850 -82.3576 main 238 212 P_____________ AL091969 19.2850 -82.3576 TS 52 0 8 301
1969226N18280 1969 56 NA CS CAMILLE 1969-08-15 00:00:00 TS 19.5000 -82.7000 55 991 hurdat_atl main 212 190 O_____________ hurdat_atl AL091969 19.5000 -82.7000 TS 55 991 0 8 306
1969226N18280 1969 56 NA CS CAMILLE 1969-08-15 03:00:00 TS 19.7349 -83.0151 main 191 164 P_____________ AL091969 19.7349 -83.0151 TS 60 985 0 8 311
1969226N18280 1969 56 NA CS CAMILLE 1969-08-15 06:00:00 TS 20.0000 -83.3000 65 hurdat_atl main 164 142 I_____________ hurdat_atl AL091969 20.0000 -83.3000 HU 65 980 1 8 316
1969226N18280 1969 56 NA CS CAMILLE 1969-08-15 09:00:00 TS 20.2850 -83.5725 main 147 130 P_____________ AL091969 20.2850 -83.5725 HU 77 974 1 8 322
1969226N18280 1969 56 NA CS CAMILLE 1969-08-15 12:00:00 TS 20.6000 -83.8000 90 969 hurdat_atl main 130 111 O_____________ hurdat_atl AL091969 20.6000 -83.8000 HU 90 969 2 7 330
1969226N18280 1969 56 NA CS CAMILLE 1969-08-15 15:00:00 TS 20.9246 -83.9644 main 111 67 P_____________ AL091969 20.9246 -83.9644 HU 92 967 2 8 338
1969226N18280 1969 56 NA CS CAMILLE 1969-08-15 18:00:00 TS 21.3000 -84.1000 95 966 hurdat_atl main 67 22 O_____________ hurdat_atl AL091969 21.3000 -84.1000 HU 95 966 2 8 342
1969226N18280 1969 56 NA CS CAMILLE 1969-08-15 21:00:00 TS 21.7263 -84.2500 main 22 0 P_____________ AL091969 21.7263 -84.2500 HU 95 2 9 343
1969226N18280 1969 56 NA CS CAMILLE 1969-08-15 22:00:00 TS 21.9000 -84.3000 95 hurdat_atl main 0 0 O_____________ hurdat_atl AL091969 21.9000 -84.3000 L HU 95 2 12 347
1969226N18280 1969 56 NA NA CAMILLE 1969-08-16 00:00:00 TS 22.3000 -84.4000 90 hurdat_atl main 0 0 O_____________ hurdat_atl AL091969 22.3000 -84.4000 HU 90 2 11 334
1969226N18280 1969 56 NA GM CAMILLE 1969-08-16 03:00:00 TS 22.7531 -84.7418 main 60 60 P_____________ AL091969 22.7531 -84.7418 HU 97 3 11 317
1969226N18280 1969 56 NA GM CAMILLE 1969-08-16 06:00:00 TS 23.1000 -85.2000 105 hurdat_atl main 120 120 O_____________ hurdat_atl AL091969 23.1000 -85.2000 HU 105 3 11 312
1969226N18280 1969 56 NA GM CAMILLE 1969-08-16 09:00:00 TS 23.4725 -85.6150 main 181 181 P_____________ AL091969 23.4725 -85.6150 HU 117 4 10 314
1969226N18280 1969 56 NA GM CAMILLE 1969-08-16 12:00:00 TS 23.8000 -86.0000 130 hurdat_atl main 233 233 O_____________ hurdat_atl AL091969 23.8000 -86.0000 HU 130 4 9 311
1969226N18280 1969 56 NA GM CAMILLE 1969-08-16 15:00:00 TS 24.0348 -86.3155 main 269 269 P_____________ AL091969 24.0348 -86.3155 HU 140 5 7 312
1969226N18280 1969 56 NA GM CAMILLE 1969-08-16 18:00:00 TS 24.3000 -86.6000 150 908 hurdat_atl main 314 314 O_____________ hurdat_atl AL091969 24.3000 -86.6000 HU 150 908 5 9 322
1969226N18280 1969 56 NA GM CAMILLE 1969-08-16 21:00:00 TS 24.7275 -86.9074 main 357 357 P_____________ AL091969 24.7275 -86.9074 HU 150 906 5 11 329
1969226N18280 1969 56 NA GM CAMILLE 1969-08-17 00:00:00 TS 25.2000 -87.2000 150 905 hurdat_atl main 413 413 O_____________ hurdat_atl AL091969 25.2000 -87.2000 HU 150 905 5 10 330
1969226N18280 1969 56 NA GM CAMILLE 1969-08-17 03:00:00 TS 25.5924 -87.4505 main 411 362 P_____________ AL091969 25.5924 -87.4505 HU 147 5 9 331
1969226N18280 1969 56 NA GM CAMILLE 1969-08-17 06:00:00 TS 26.0000 -87.7000 145 hurdat_atl main 362 309 O_____________ hurdat_atl AL091969 26.0000 -87.7000 HU 145 5 10 330
1969226N18280 1969 56 NA GM CAMILLE 1969-08-17 09:00:00 TS 26.4701 -88.0075 main 299 236 P_____________ AL091969 26.4701 -88.0075 HU 142 5 11 332
1969226N18280 1969 56 NA GM CAMILLE 1969-08-17 12:00:00 TS 27.0000 -88.3000 140 hurdat_atl main 236 166 O_____________ hurdat_atl AL091969 27.0000 -88.3000 HU 140 5 12 338
1969226N18280 1969 56 NA GM CAMILLE 1969-08-17 15:00:00 TS 27.5849 -88.5227 main 166 97 P_____________ AL091969 27.5849 -88.5227 HU 137 5 13 344
1969226N18280 1969 56 NA GM CAMILLE 1969-08-17 18:00:00 TS 28.2000 -88.7000 135 919 hurdat_atl main 97 36 O_____________ hurdat_atl AL091969 28.2000 -88.7000 HU 135 919 4 12 347
1969226N18280 1969 56 NA GM CAMILLE 1969-08-17 21:00:00 TS 28.7862 -88.8304 main 36 9 P_____________ AL091969 28.7862 -88.8304 HU 137 913 5 12 348
1969226N18280 1969 56 NA GM CAMILLE 1969-08-18 00:00:00 TS 29.4000 -89.0000 140 hurdat_atl main 22 9 I_____________ hurdat_atl AL091969 29.4000 -89.0000 HU 140 907 5 14 343
1969226N18280 1969 56 NA GM CAMILLE 1969-08-18 03:00:00 TS 30.0824 -89.2946 main 22 0 P_____________ AL091969 30.0824 -89.2946 HU 147 901 5 15 339
1969226N18280 1969 56 NA NA CAMILLE 1969-08-18 04:00:00 TS 30.3000 -89.4000 150 900 hurdat_atl main 0 0 O_____________ hurdat_atl AL091969 30.3000 -89.4000 L HU 150 900 5 13 337
1969226N18280 1969 56 NA NA CAMILLE 1969-08-18 06:00:00 TS 30.7000 -89.6000 115 hurdat_atl main 0 0 O_____________ hurdat_atl AL091969 30.7000 -89.6000 HU 115 4 13 342
1969226N18280 1969 56 NA NA CAMILLE 1969-08-18 09:00:00 TS 31.3318 -89.7918 main 0 0 P_____________ AL091969 31.3318 -89.7918 HU 95 2 13 349
1969226N18280 1969 56 NA NA CAMILLE 1969-08-18 12:00:00 TS 32.0000 -89.9000 75 hurdat_atl main 0 0 O_____________ hurdat_atl AL091969 32.0000 -89.9000 HU 75 1 14 352
1969226N18280 1969 56 NA NA CAMILLE 1969-08-18 15:00:00 TS 32.7000 -90.0298 main 0 0 P_____________ AL091969 32.7000 -90.0298 HU 62 0 14 353
1969226N18280 1969 56 NA NA CAMILLE 1969-08-18 18:00:00 TS 33.4000 -90.1000 50 hurdat_atl main 0 0 O_____________ hurdat_atl AL091969 33.4000 -90.1000 TS 50 0 14 357
1969226N18280 1969 56 NA NA CAMILLE 1969-08-18 21:00:00 TS 34.0573 -90.1169 main 0 0 P_____________ AL091969 34.0573 -90.1169 TS 42 0 13 4
1969226N18280 1969 56 NA NA CAMILLE 1969-08-19 00:00:00 TS 34.7000 -90.0000 35 hurdat_atl main 0 0 O_____________ hurdat_atl AL091969 34.7000 -90.0000 TS 35 0 14 13
1969226N18280 1969 56 NA NA CAMILLE 1969-08-19 03:00:00 TS 35.3721 -89.7399 main 0 0 P_____________ AL091969 35.3721 -89.7399 TS 32 -1 14 24
1969226N18280 1969 56 NA NA CAMILLE 1969-08-19 06:00:00 TS 36.0000 -89.3000 30 hurdat_atl main 0 0 O_____________ hurdat_atl AL091969 36.0000 -89.3000 TD 30 -1 14 34
1969226N18280 1969 56 NA NA CAMILLE 1969-08-19 09:00:00 TS 36.5517 -88.7472 main 0 0 P_____________ AL091969 36.5517 -88.7472 TD 30 -1 14 46
1969226N18280 1969 56 NA NA CAMILLE 1969-08-19 12:00:00 TS 37.0000 -88.0000 30 hurdat_atl main 0 0 O_____________ hurdat_atl AL091969 37.0000 -88.0000 TD 30 -1 16 59
1969226N18280 1969 56 NA NA CAMILLE 1969-08-19 15:00:00 TS 37.3753 -87.0532 main 0 0 P_____________ AL091969 37.3753 -87.0532 TD 27 -1 17 69
1969226N18280 1969 56 NA NA CAMILLE 1969-08-19 18:00:00 TS 37.6000 -86.0000 25 hurdat_atl main 0 0 O_____________ hurdat_atl AL091969 37.6000 -86.0000 TD 25 -1 16 80
1969226N18280 1969 56 NA NA CAMILLE 1969-08-19 21:00:00 TS 37.6558 -85.1039 main 0 0 P_____________ AL091969 37.6558 -85.1039 TD 25 -1 16 90
1969226N18280 1969 56 NA NA CAMILLE 1969-08-20 00:00:00 TS 37.6000 -84.0000 25 hurdat_atl main 0 0 O_____________ hurdat_atl AL091969 37.6000 -84.0000 TD 25 -1 21 94
1969226N18280 1969 56 NA NA CAMILLE 1969-08-20 03:00:00 TS 37.5167 -82.3965 main 0 0 P_____________ AL091969 37.5167 -82.3965 TD 25 -1 27 94
1969226N18280 1969 56 NA NA CAMILLE 1969-08-20 06:00:00 TS 37.4000 -80.6000 25 hurdat_atl main 0 0 O_____________ hurdat_atl AL091969 37.4000 -80.6000 TD 25 -1 28 94
1969226N18280 1969 56 NA NA CAMILLE 1969-08-20 09:00:00 TS 37.3009 -78.8454 main 0 0 P_____________ AL091969 37.3009 -78.8454 TD 27 -1 26 94
1969226N18280 1969 56 NA NA CAMILLE 1969-08-20 12:00:00 TS 37.2000 -77.3000 30 hurdat_atl main 0 0 O_____________ hurdat_atl AL091969 37.2000 -77.3000 TD 30 -1 21 95
1969226N18280 1969 56 NA NA CAMILLE 1969-08-20 15:00:00 TS 37.1042 -76.1811 main 8 0 P_____________ AL091969 37.1042 -76.1811 TD 37 0 16 97
1969226N18280 1969 56 NA NA CAMILLE 1969-08-20 18:00:00 TS 37.0000 -75.3000 45 1000 hurdat_atl main 54 54 O_____________ hurdat_atl AL091969 37.0000 -75.3000 TS 45 1000 0 14 101
1969226N18280 1969 56 NA NA CAMILLE 1969-08-20 21:00:00 TS 36.8320 -74.5020 main 124 124 P_____________ AL091969 36.8320 -74.5020 TS 47 0 14 102
1969226N18280 1969 56 NA NA CAMILLE 1969-08-21 00:00:00 TS 36.7000 -73.6000 50 hurdat_atl main 194 194 O_____________ hurdat_atl AL091969 36.7000 -73.6000 TS 50 0 17 96
1969226N18280 1969 56 NA NA CAMILLE 1969-08-21 03:00:00 TS 36.6480 -72.3316 main 299 299 P_____________ AL091969 36.6480 -72.3316 TS 52 0 22 90
1969226N18280 1969 56 NA NA CAMILLE 1969-08-21 06:00:00 TS 36.7000 -70.9000 55 hurdat_atl main 410 410 O_____________ hurdat_atl AL091969 36.7000 -70.9000 TS 55 0 22 85
1969226N18280 1969 56 NA NA CAMILLE 1969-08-21 09:00:00 TS 36.8445 -69.5514 main 508 508 P_____________ AL091969 36.8445 -69.5514 TS 57 0 23 80
1969226N18280 1969 56 NA NA CAMILLE 1969-08-21 12:00:00 TS 37.1000 -68.1000 60 hurdat_atl main 537 537 O_____________ hurdat_atl AL091969 37.1000 -68.1000 TS 60 0 26 78
1969226N18280 1969 56 NA NA CAMILLE 1969-08-21 15:00:00 TS 37.3760 -66.4051 main 568 568 P_____________ AL091969 37.3760 -66.4051 TS 60 0 28 75
1969226N18280 1969 56 NA NA CAMILLE 1969-08-21 18:00:00 TS 37.8000 -64.7000 60 hurdat_atl main 626 591 O_____________ hurdat_atl AL091969 37.8000 -64.7000 TS 60 0 27 67
1969226N18280 1969 56 NA NA CAMILLE 1969-08-21 21:00:00 TS 38.4273 -63.2618 main 591 555 P_____________ AL091969 38.4273 -63.2618 TS 57 0 27 58
1969226N18280 1969 56 NA NA CAMILLE 1969-08-22 00:00:00 TS 39.2000 -61.8000 55 hurdat_atl main 559 559 O_____________ hurdat_atl AL091969 39.2000 -61.8000 TS 55 0 29 58
1969226N18280 1969 56 NA NA CAMILLE 1969-08-22 03:00:00 TS 39.9376 -60.0898 main 577 546 P_____________ AL091969 39.9376 -60.0898 TS 50 0 32 60
1969226N18280 1969 56 NA NA CAMILLE 1969-08-22 06:00:00 TS 40.8000 -58.2000 45 hurdat_atl main 542 531 O_____________ hurdat_atl AL091969 40.8000 -58.2000 TS 45 0 35 57
1969226N18280 1969 56 NA NA CAMILLE 1969-08-22 09:00:00 TS 41.8531 -56.1615 main 531 413 P_____________ AL091969 41.8531 -56.1615 TS 40 0 38 55
1969226N18280 1969 56 NA NA CAMILLE 1969-08-22 12:00:00 ET 43.0000 -54.0000 35 hurdat_atl main 401 O_____________ hurdat_atl AL091969 43.0000 -54.0000 EX 35 -4 39 54

About IBTrACS Database

This database is a web-friendly format of International Best Track Archive for Climate Stewardship (IBTrACS), a global best track data archive curated by NOAA dating back to 1842.

Updated: 2021-10-27